sensor_id;sensor_type;location;lat;lon;timestamp;P1;durP1;ratioP1;P2;durP2;ratioP2
8252;SDS011;61313;48.396;10.008;2023-07-20T00:01:06;5.23;;;2.27;;
8252;SDS011;61313;48.396;10.008;2023-07-20T00:03:32;5.80;;;2.90;;
8252;SDS011;61313;48.396;10.008;2023-07-20T00:05:57;3.40;;;2.20;;
8252;SDS011;61313;48.396;10.008;2023-07-20T00:08:22;5.13;;;1.90;;
8252;SDS011;61313;48.396;10.008;2023-07-20T00:10:48;6.07;;;1.50;;
8252;SDS011;61313;48.396;10.008;2023-07-20T00:13:13;3.90;;;2.07;;
8252;SDS011;61313;48.396;10.008;2023-07-20T00:15:40;9.00;;;2.53;;
8252;SDS011;61313;48.396;10.008;2023-07-20T00:18:06;8.47;;;2.60;;
8252;SDS011;61313;48.396;10.008;2023-07-20T00:20:32;4.33;;;2.40;;
8252;SDS011;61313;48.396;10.008;2023-07-20T00:22:57;5.30;;;1.77;;
8252;SDS011;61313;48.396;10.008;2023-07-20T00:25:23;5.47;;;2.37;;
8252;SDS011;61313;48.396;10.008;2023-07-20T00:27:49;5.27;;;1.60;;
8252;SDS011;61313;48.396;10.008;2023-07-20T00:30:15;9.63;;;1.70;;
8252;SDS011;61313;48.396;10.008;2023-07-20T00:32:41;4.33;;;1.77;;
8252;SDS011;61313;48.396;10.008;2023-07-20T00:35:07;4.50;;;2.73;;
8252;SDS011;61313;48.396;10.008;2023-07-20T00:37:33;4.70;;;2.07;;
8252;SDS011;61313;48.396;10.008;2023-07-20T00:39:58;4.37;;;2.57;;
8252;SDS011;61313;48.396;10.008;2023-07-20T00:42:23;3.80;;;2.03;;
8252;SDS011;61313;48.396;10.008;2023-07-20T00:44:49;3.87;;;2.07;;
8252;SDS011;61313;48.396;10.008;2023-07-20T00:47:14;4.93;;;2.00;;
8252;SDS011;61313;48.396;10.008;2023-07-20T00:49:40;3.00;;;1.83;;
8252;SDS011;61313;48.396;10.008;2023-07-20T00:52:06;6.63;;;2.50;;
8252;SDS011;61313;48.396;10.008;2023-07-20T00:54:32;3.67;;;2.20;;
8252;SDS011;61313;48.396;10.008;2023-07-20T00:56:59;3.40;;;1.60;;
8252;SDS011;61313;48.396;10.008;2023-07-20T00:59:26;9.73;;;2.37;;
8252;SDS011;61313;48.396;10.008;2023-07-20T01:01:52;3.07;;;2.57;;
8252;SDS011;61313;48.396;10.008;2023-07-20T01:04:17;2.67;;;1.93;;
8252;SDS011;61313;48.396;10.008;2023-07-20T01:09:26;5.07;;;2.33;;
8252;SDS011;61313;48.396;10.008;2023-07-20T01:12:14;8.23;;;2.60;;
8252;SDS011;61313;48.396;10.008;2023-07-20T01:14:55;4.70;;;2.60;;
8252;SDS011;61313;48.396;10.008;2023-07-20T01:17:20;4.43;;;2.50;;
8252;SDS011;61313;48.396;10.008;2023-07-20T01:19:46;6.10;;;2.60;;
8252;SDS011;61313;48.396;10.008;2023-07-20T01:33:19;4.33;;;2.33;;
8252;SDS011;61313;48.396;10.008;2023-07-20T01:35:48;3.20;;;2.50;;
8252;SDS011;61313;48.396;10.008;2023-07-20T01:38:18;3.50;;;2.33;;
8252;SDS011;61313;48.396;10.008;2023-07-20T01:40:45;5.80;;;2.60;;
8252;SDS011;61313;48.396;10.008;2023-07-20T01:43:11;5.20;;;2.90;;
8252;SDS011;61313;48.396;10.008;2023-07-20T01:45:40;3.00;;;2.40;;
8252;SDS011;61313;48.396;10.008;2023-07-20T01:48:05;2.80;;;2.20;;
8252;SDS011;61313;48.396;10.008;2023-07-20T01:50:31;6.10;;;2.60;;
8252;SDS011;61313;48.396;10.008;2023-07-20T01:52:56;13.53;;;2.97;;
8252;SDS011;61313;48.396;10.008;2023-07-20T01:55:22;7.53;;;3.47;;
8252;SDS011;61313;48.396;10.008;2023-07-20T01:57:47;4.40;;;2.20;;
8252;SDS011;61313;48.396;10.008;2023-07-20T02:00:13;4.23;;;2.67;;
8252;SDS011;61313;48.396;10.008;2023-07-20T02:02:38;8.90;;;2.93;;
8252;SDS011;61313;48.396;10.008;2023-07-20T02:05:04;5.60;;;2.00;;
8252;SDS011;61313;48.396;10.008;2023-07-20T02:07:29;10.40;;;2.80;;
8252;SDS011;61313;48.396;10.008;2023-07-20T02:09:55;2.70;;;2.27;;
8252;SDS011;61313;48.396;10.008;2023-07-20T02:12:20;4.27;;;3.70;;
8252;SDS011;61313;48.396;10.008;2023-07-20T02:14:45;6.17;;;2.97;;
8252;SDS011;61313;48.396;10.008;2023-07-20T02:17:11;4.83;;;2.57;;
8252;SDS011;61313;48.396;10.008;2023-07-20T02:19:36;5.63;;;2.40;;
8252;SDS011;61313;48.396;10.008;2023-07-20T02:22:02;6.97;;;2.67;;
8252;SDS011;61313;48.396;10.008;2023-07-20T02:24:27;9.03;;;2.90;;
8252;SDS011;61313;48.396;10.008;2023-07-20T02:26:53;4.13;;;2.80;;
8252;SDS011;61313;48.396;10.008;2023-07-20T02:29:18;4.70;;;2.40;;
8252;SDS011;61313;48.396;10.008;2023-07-20T02:31:44;8.60;;;2.67;;
8252;SDS011;61313;48.396;10.008;2023-07-20T02:34:09;3.20;;;2.27;;
8252;SDS011;61313;48.396;10.008;2023-07-20T02:36:35;2.93;;;2.40;;
8252;SDS011;61313;48.396;10.008;2023-07-20T02:39:00;4.43;;;2.97;;
8252;SDS011;61313;48.396;10.008;2023-07-20T02:41:29;4.23;;;2.90;;
8252;SDS011;61313;48.396;10.008;2023-07-20T02:43:59;7.17;;;2.53;;
8252;SDS011;61313;48.396;10.008;2023-07-20T02:46:25;4.57;;;2.60;;
8252;SDS011;61313;48.396;10.008;2023-07-20T02:48:50;4.37;;;2.50;;
8252;SDS011;61313;48.396;10.008;2023-07-20T02:51:16;3.23;;;2.40;;
8252;SDS011;61313;48.396;10.008;2023-07-20T02:53:41;11.03;;;3.53;;
8252;SDS011;61313;48.396;10.008;2023-07-20T02:56:06;36.10;;;4.60;;
8252;SDS011;61313;48.396;10.008;2023-07-20T02:58:33;21.60;;;3.93;;
8252;SDS011;61313;48.396;10.008;2023-07-20T03:01:02;7.87;;;3.03;;
8252;SDS011;61313;48.396;10.008;2023-07-20T03:03:29;11.97;;;3.03;;
8252;SDS011;61313;48.396;10.008;2023-07-20T03:05:54;13.43;;;3.57;;
8252;SDS011;61313;48.396;10.008;2023-07-20T03:08:21;10.50;;;2.87;;
8252;SDS011;61313;48.396;10.008;2023-07-20T03:10:46;7.97;;;3.27;;
8252;SDS011;61313;48.396;10.008;2023-07-20T03:13:12;4.50;;;2.60;;
8252;SDS011;61313;48.396;10.008;2023-07-20T03:15:39;12.70;;;3.90;;
8252;SDS011;61313;48.396;10.008;2023-07-20T03:18:04;6.10;;;2.83;;
8252;SDS011;61313;48.396;10.008;2023-07-20T03:20:30;13.37;;;3.70;;
8252;SDS011;61313;48.396;10.008;2023-07-20T03:22:56;8.57;;;2.80;;
8252;SDS011;61313;48.396;10.008;2023-07-20T03:25:21;11.20;;;3.30;;
8252;SDS011;61313;48.396;10.008;2023-07-20T03:27:47;17.83;;;4.50;;
8252;SDS011;61313;48.396;10.008;2023-07-20T03:30:13;21.77;;;4.10;;
8252;SDS011;61313;48.396;10.008;2023-07-20T03:32:38;12.17;;;3.70;;
8252;SDS011;61313;48.396;10.008;2023-07-20T03:35:03;5.97;;;3.33;;
8252;SDS011;61313;48.396;10.008;2023-07-20T03:37:29;24.87;;;3.97;;
8252;SDS011;61313;48.396;10.008;2023-07-20T03:39:55;10.93;;;4.30;;
8252;SDS011;61313;48.396;10.008;2023-07-20T03:42:20;27.10;;;5.10;;
8252;SDS011;61313;48.396;10.008;2023-07-20T03:44:45;16.33;;;4.70;;
8252;SDS011;61313;48.396;10.008;2023-07-20T03:47:11;42.07;;;7.07;;
8252;SDS011;61313;48.396;10.008;2023-07-20T03:49:36;9.03;;;3.60;;
8252;SDS011;61313;48.396;10.008;2023-07-20T03:52:02;12.67;;;3.70;;
8252;SDS011;61313;48.396;10.008;2023-07-20T03:54:28;10.47;;;3.10;;
8252;SDS011;61313;48.396;10.008;2023-07-20T03:56:54;10.97;;;4.43;;
8252;SDS011;61313;48.396;10.008;2023-07-20T03:59:19;15.93;;;4.63;;
8252;SDS011;61313;48.396;10.008;2023-07-20T04:01:45;5.40;;;3.20;;
8252;SDS011;61313;48.396;10.008;2023-07-20T04:04:10;5.47;;;3.10;;
8252;SDS011;61313;48.396;10.008;2023-07-20T04:06:36;8.50;;;4.27;;
8252;SDS011;61313;48.396;10.008;2023-07-20T04:09:02;9.10;;;3.00;;
8252;SDS011;61313;48.396;10.008;2023-07-20T04:11:28;12.53;;;4.77;;
8252;SDS011;61313;48.396;10.008;2023-07-20T04:13:53;5.97;;;3.60;;
8252;SDS011;61313;48.396;10.008;2023-07-20T04:16:19;27.63;;;5.10;;
8252;SDS011;61313;48.396;10.008;2023-07-20T04:18:45;18.83;;;5.03;;
8252;SDS011;61313;48.396;10.008;2023-07-20T04:21:10;7.30;;;3.77;;
8252;SDS011;61313;48.396;10.008;2023-07-20T04:23:36;17.07;;;3.33;;
8252;SDS011;61313;48.396;10.008;2023-07-20T04:26:02;7.10;;;2.87;;
8252;SDS011;61313;48.396;10.008;2023-07-20T04:28:27;9.40;;;4.40;;
8252;SDS011;61313;48.396;10.008;2023-07-20T04:30:52;10.60;;;3.97;;
8252;SDS011;61313;48.396;10.008;2023-07-20T04:33:18;23.93;;;5.50;;
8252;SDS011;61313;48.396;10.008;2023-07-20T04:35:45;48.40;;;7.37;;
8252;SDS011;61313;48.396;10.008;2023-07-20T04:38:14;18.50;;;3.97;;
8252;SDS011;61313;48.396;10.008;2023-07-20T04:40:42;14.23;;;4.70;;
8252;SDS011;61313;48.396;10.008;2023-07-20T04:43:11;56.43;;;8.60;;
8252;SDS011;61313;48.396;10.008;2023-07-20T04:45:37;23.43;;;5.13;;
8252;SDS011;61313;48.396;10.008;2023-07-20T04:48:03;13.40;;;4.77;;
8252;SDS011;61313;48.396;10.008;2023-07-20T04:50:28;12.30;;;4.40;;
8252;SDS011;61313;48.396;10.008;2023-07-20T04:52:54;11.07;;;4.00;;
8252;SDS011;61313;48.396;10.008;2023-07-20T04:55:19;35.80;;;5.93;;
8252;SDS011;61313;48.396;10.008;2023-07-20T04:57:44;42.43;;;8.50;;
8252;SDS011;61313;48.396;10.008;2023-07-20T05:00:10;29.60;;;5.00;;
8252;SDS011;61313;48.396;10.008;2023-07-20T05:02:38;77.17;;;8.73;;
8252;SDS011;61313;48.396;10.008;2023-07-20T05:05:03;20.97;;;5.47;;
8252;SDS011;61313;48.396;10.008;2023-07-20T05:07:30;14.47;;;4.00;;
8252;SDS011;61313;48.396;10.008;2023-07-20T05:09:56;28.80;;;4.70;;
8252;SDS011;61313;48.396;10.008;2023-07-20T05:12:22;14.87;;;4.03;;
8252;SDS011;61313;48.396;10.008;2023-07-20T05:14:48;9.13;;;3.90;;
8252;SDS011;61313;48.396;10.008;2023-07-20T05:17:13;8.23;;;3.93;;
8252;SDS011;61313;48.396;10.008;2023-07-20T05:19:39;33.40;;;6.10;;
8252;SDS011;61313;48.396;10.008;2023-07-20T05:22:04;26.77;;;6.67;;
8252;SDS011;61313;48.396;10.008;2023-07-20T05:24:30;25.33;;;5.63;;
8252;SDS011;61313;48.396;10.008;2023-07-20T05:26:56;9.50;;;4.13;;
8252;SDS011;61313;48.396;10.008;2023-07-20T05:29:21;7.47;;;4.60;;
8252;SDS011;61313;48.396;10.008;2023-07-20T05:31:47;18.57;;;4.60;;
8252;SDS011;61313;48.396;10.008;2023-07-20T05:34:12;19.93;;;4.83;;
8252;SDS011;61313;48.396;10.008;2023-07-20T05:36:37;12.03;;;4.60;;
8252;SDS011;61313;48.396;10.008;2023-07-20T05:39:03;27.53;;;4.93;;
8252;SDS011;61313;48.396;10.008;2023-07-20T05:41:28;23.27;;;4.23;;
8252;SDS011;61313;48.396;10.008;2023-07-20T05:43:53;15.63;;;4.70;;
8252;SDS011;61313;48.396;10.008;2023-07-20T05:46:19;16.00;;;5.67;;
8252;SDS011;61313;48.396;10.008;2023-07-20T05:48:44;15.53;;;4.83;;
8252;SDS011;61313;48.396;10.008;2023-07-20T05:51:10;21.60;;;5.60;;
8252;SDS011;61313;48.396;10.008;2023-07-20T05:53:35;21.67;;;4.50;;
8252;SDS011;61313;48.396;10.008;2023-07-20T05:56:00;8.03;;;3.47;;
8252;SDS011;61313;48.396;10.008;2023-07-20T05:58:26;6.80;;;3.20;;
8252;SDS011;61313;48.396;10.008;2023-07-20T06:00:51;3.37;;;2.60;;
8252;SDS011;61313;48.396;10.008;2023-07-20T06:03:18;21.30;;;4.77;;
8252;SDS011;61313;48.396;10.008;2023-07-20T06:05:46;26.43;;;5.90;;
8252;SDS011;61313;48.396;10.008;2023-07-20T06:08:11;11.20;;;3.70;;
8252;SDS011;61313;48.396;10.008;2023-07-20T06:10:37;7.10;;;3.20;;
8252;SDS011;61313;48.396;10.008;2023-07-20T06:13:02;11.53;;;4.00;;
8252;SDS011;61313;48.396;10.008;2023-07-20T06:15:32;31.70;;;5.90;;
8252;SDS011;61313;48.396;10.008;2023-07-20T06:17:59;53.57;;;7.20;;
8252;SDS011;61313;48.396;10.008;2023-07-20T06:20:25;12.43;;;3.77;;
8252;SDS011;61313;48.396;10.008;2023-07-20T06:22:51;24.00;;;4.73;;
8252;SDS011;61313;48.396;10.008;2023-07-20T06:25:16;15.93;;;3.50;;
8252;SDS011;61313;48.396;10.008;2023-07-20T06:27:42;20.13;;;3.87;;
8252;SDS011;61313;48.396;10.008;2023-07-20T06:30:08;29.17;;;5.90;;
8252;SDS011;61313;48.396;10.008;2023-07-20T06:32:34;21.43;;;3.93;;
8252;SDS011;61313;48.396;10.008;2023-07-20T06:34:59;10.13;;;3.20;;
8252;SDS011;61313;48.396;10.008;2023-07-20T06:37:24;37.67;;;5.87;;
8252;SDS011;61313;48.396;10.008;2023-07-20T06:39:51;58.17;;;8.73;;
8252;SDS011;61313;48.396;10.008;2023-07-20T06:42:16;34.10;;;6.07;;
8252;SDS011;61313;48.396;10.008;2023-07-20T06:44:41;34.87;;;5.60;;
8252;SDS011;61313;48.396;10.008;2023-07-20T06:47:07;26.67;;;5.77;;
8252;SDS011;61313;48.396;10.008;2023-07-20T06:49:32;18.13;;;3.17;;
8252;SDS011;61313;48.396;10.008;2023-07-20T06:51:58;7.60;;;3.00;;
8252;SDS011;61313;48.396;10.008;2023-07-20T06:54:23;4.10;;;2.97;;
8252;SDS011;61313;48.396;10.008;2023-07-20T06:56:49;5.87;;;3.10;;
8252;SDS011;61313;48.396;10.008;2023-07-20T06:59:15;16.63;;;4.03;;
8252;SDS011;61313;48.396;10.008;2023-07-20T07:01:40;7.50;;;2.77;;
8252;SDS011;61313;48.396;10.008;2023-07-20T07:04:05;8.90;;;2.87;;
8252;SDS011;61313;48.396;10.008;2023-07-20T07:06:31;22.67;;;5.73;;
8252;SDS011;61313;48.396;10.008;2023-07-20T07:08:59;30.60;;;6.23;;
8252;SDS011;61313;48.396;10.008;2023-07-20T07:11:24;11.10;;;3.97;;
8252;SDS011;61313;48.396;10.008;2023-07-20T07:13:49;11.27;;;3.40;;
8252;SDS011;61313;48.396;10.008;2023-07-20T07:16:16;11.07;;;2.87;;
8252;SDS011;61313;48.396;10.008;2023-07-20T07:18:46;21.10;;;3.90;;
8252;SDS011;61313;48.396;10.008;2023-07-20T07:21:12;13.87;;;4.20;;
8252;SDS011;61313;48.396;10.008;2023-07-20T07:23:38;7.27;;;2.73;;
8252;SDS011;61313;48.396;10.008;2023-07-20T07:26:04;6.40;;;3.70;;
8252;SDS011;61313;48.396;10.008;2023-07-20T07:28:29;16.47;;;3.63;;
8252;SDS011;61313;48.396;10.008;2023-07-20T07:30:55;11.93;;;3.73;;
8252;SDS011;61313;48.396;10.008;2023-07-20T07:33:22;7.13;;;3.27;;
8252;SDS011;61313;48.396;10.008;2023-07-20T07:35:47;8.43;;;3.80;;
8252;SDS011;61313;48.396;10.008;2023-07-20T07:38:13;10.33;;;3.80;;
8252;SDS011;61313;48.396;10.008;2023-07-20T07:40:38;10.60;;;3.90;;
8252;SDS011;61313;48.396;10.008;2023-07-20T07:43:04;10.73;;;4.10;;
8252;SDS011;61313;48.396;10.008;2023-07-20T07:45:29;9.77;;;3.30;;
8252;SDS011;61313;48.396;10.008;2023-07-20T07:47:54;16.63;;;4.30;;
8252;SDS011;61313;48.396;10.008;2023-07-20T07:50:20;20.40;;;4.50;;
8252;SDS011;61313;48.396;10.008;2023-07-20T07:52:45;8.83;;;3.40;;
8252;SDS011;61313;48.396;10.008;2023-07-20T07:55:11;16.27;;;4.63;;
8252;SDS011;61313;48.396;10.008;2023-07-20T07:57:37;14.07;;;4.00;;
8252;SDS011;61313;48.396;10.008;2023-07-20T08:00:02;10.50;;;3.53;;
8252;SDS011;61313;48.396;10.008;2023-07-20T08:02:29;9.83;;;3.60;;
8252;SDS011;61313;48.396;10.008;2023-07-20T08:04:54;9.07;;;3.37;;
8252;SDS011;61313;48.396;10.008;2023-07-20T08:07:19;9.53;;;2.70;;
8252;SDS011;61313;48.396;10.008;2023-07-20T08:09:45;10.97;;;4.20;;
8252;SDS011;61313;48.396;10.008;2023-07-20T08:12:10;13.60;;;3.60;;
8252;SDS011;61313;48.396;10.008;2023-07-20T08:14:36;13.20;;;3.47;;
8252;SDS011;61313;48.396;10.008;2023-07-20T08:17:01;11.93;;;3.70;;
8252;SDS011;61313;48.396;10.008;2023-07-20T08:19:27;18.43;;;4.23;;
8252;SDS011;61313;48.396;10.008;2023-07-20T08:21:52;20.00;;;4.30;;
8252;SDS011;61313;48.396;10.008;2023-07-20T08:24:18;18.80;;;3.83;;
8252;SDS011;61313;48.396;10.008;2023-07-20T08:26:43;8.30;;;2.80;;
8252;SDS011;61313;48.396;10.008;2023-07-20T08:29:08;9.27;;;3.30;;
8252;SDS011;61313;48.396;10.008;2023-07-20T08:31:34;7.13;;;2.73;;
8252;SDS011;61313;48.396;10.008;2023-07-20T08:33:59;5.40;;;2.87;;
8252;SDS011;61313;48.396;10.008;2023-07-20T08:36:24;11.03;;;3.33;;
8252;SDS011;61313;48.396;10.008;2023-07-20T08:38:51;5.73;;;2.60;;
8252;SDS011;61313;48.396;10.008;2023-07-20T08:41:16;11.53;;;3.33;;
8252;SDS011;61313;48.396;10.008;2023-07-20T08:43:42;5.73;;;3.30;;
8252;SDS011;61313;48.396;10.008;2023-07-20T08:46:10;14.63;;;3.03;;
8252;SDS011;61313;48.396;10.008;2023-07-20T08:48:37;10.13;;;3.27;;
8252;SDS011;61313;48.396;10.008;2023-07-20T08:51:04;6.80;;;3.27;;
8252;SDS011;61313;48.396;10.008;2023-07-20T08:53:30;8.97;;;3.37;;
8252;SDS011;61313;48.396;10.008;2023-07-20T08:55:57;15.50;;;2.80;;
8252;SDS011;61313;48.396;10.008;2023-07-20T08:58:24;24.17;;;3.57;;
8252;SDS011;61313;48.396;10.008;2023-07-20T09:00:51;7.70;;;3.27;;
8252;SDS011;61313;48.396;10.008;2023-07-20T09:03:18;11.00;;;3.20;;
8252;SDS011;61313;48.396;10.008;2023-07-20T09:05:44;5.03;;;2.67;;
8252;SDS011;61313;48.396;10.008;2023-07-20T09:08:10;12.50;;;3.33;;
8252;SDS011;61313;48.396;10.008;2023-07-20T09:10:35;5.43;;;2.70;;
8252;SDS011;61313;48.396;10.008;2023-07-20T09:13:01;8.33;;;3.13;;
8252;SDS011;61313;48.396;10.008;2023-07-20T09:15:28;8.33;;;3.60;;
8252;SDS011;61313;48.396;10.008;2023-07-20T09:17:54;5.30;;;2.73;;
8252;SDS011;61313;48.396;10.008;2023-07-20T09:20:20;5.10;;;3.20;;
8252;SDS011;61313;48.396;10.008;2023-07-20T09:22:46;5.40;;;3.20;;
8252;SDS011;61313;48.396;10.008;2023-07-20T09:25:12;10.97;;;3.33;;
8252;SDS011;61313;48.396;10.008;2023-07-20T09:27:40;9.20;;;3.67;;
8252;SDS011;61313;48.396;10.008;2023-07-20T09:30:07;7.90;;;3.00;;
8252;SDS011;61313;48.396;10.008;2023-07-20T09:32:44;8.83;;;3.70;;
8252;SDS011;61313;48.396;10.008;2023-07-20T09:35:14;11.37;;;3.63;;
8252;SDS011;61313;48.396;10.008;2023-07-20T09:37:42;12.93;;;3.20;;
8252;SDS011;61313;48.396;10.008;2023-07-20T09:40:37;10.50;;;3.40;;
8252;SDS011;61313;48.396;10.008;2023-07-20T09:43:06;6.07;;;3.10;;
8252;SDS011;61313;48.396;10.008;2023-07-20T09:45:33;3.53;;;2.40;;
8252;SDS011;61313;48.396;10.008;2023-07-20T09:48:07;7.73;;;2.03;;
8252;SDS011;61313;48.396;10.008;2023-07-20T09:50:33;4.73;;;2.50;;
8252;SDS011;61313;48.396;10.008;2023-07-20T09:53:13;10.80;;;2.70;;
8252;SDS011;61313;48.396;10.008;2023-07-20T09:55:43;14.83;;;3.53;;
8252;SDS011;61313;48.396;10.008;2023-07-20T09:58:09;13.30;;;3.00;;
8252;SDS011;61313;48.396;10.008;2023-07-20T10:00:39;8.93;;;2.97;;
8252;SDS011;61313;48.396;10.008;2023-07-20T10:03:05;13.07;;;3.03;;
8252;SDS011;61313;48.396;10.008;2023-07-20T10:05:34;10.10;;;2.90;;
8252;SDS011;61313;48.396;10.008;2023-07-20T10:08:04;6.67;;;2.57;;
8252;SDS011;61313;48.396;10.008;2023-07-20T10:10:34;6.20;;;2.73;;
8252;SDS011;61313;48.396;10.008;2023-07-20T10:13:05;7.20;;;2.70;;
8252;SDS011;61313;48.396;10.008;2023-07-20T10:15:43;7.60;;;2.57;;
8252;SDS011;61313;48.396;10.008;2023-07-20T10:18:14;4.93;;;2.90;;
8252;SDS011;61313;48.396;10.008;2023-07-20T10:20:46;14.67;;;3.07;;
8252;SDS011;61313;48.396;10.008;2023-07-20T10:23:12;6.30;;;2.90;;
8252;SDS011;61313;48.396;10.008;2023-07-20T10:25:38;5.83;;;3.03;;
8252;SDS011;61313;48.396;10.008;2023-07-20T10:28:06;3.07;;;2.30;;
8252;SDS011;61313;48.396;10.008;2023-07-20T10:30:35;12.10;;;3.50;;
8252;SDS011;61313;48.396;10.008;2023-07-20T10:33:02;4.87;;;2.10;;
8252;SDS011;61313;48.396;10.008;2023-07-20T10:35:28;4.80;;;2.40;;
8252;SDS011;61313;48.396;10.008;2023-07-20T10:37:54;4.23;;;1.97;;
8252;SDS011;61313;48.396;10.008;2023-07-20T10:40:31;5.37;;;2.57;;
8252;SDS011;61313;48.396;10.008;2023-07-20T10:45:33;7.30;;;2.50;;
8252;SDS011;61313;48.396;10.008;2023-07-20T10:48:05;4.83;;;2.63;;
8252;SDS011;61313;48.396;10.008;2023-07-20T10:50:35;11.10;;;2.80;;
8252;SDS011;61313;48.396;10.008;2023-07-20T10:53:11;6.03;;;2.47;;
8252;SDS011;61313;48.396;10.008;2023-07-20T10:55:37;18.53;;;4.00;;
8252;SDS011;61313;48.396;10.008;2023-07-20T10:58:06;17.30;;;3.90;;
8252;SDS011;61313;48.396;10.008;2023-07-20T11:00:36;11.80;;;3.60;;
8252;SDS011;61313;48.396;10.008;2023-07-20T11:03:02;4.20;;;3.00;;
8252;SDS011;61313;48.396;10.008;2023-07-20T11:05:31;5.97;;;3.23;;
8252;SDS011;61313;48.396;10.008;2023-07-20T11:07:57;27.50;;;4.30;;
8252;SDS011;61313;48.396;10.008;2023-07-20T11:10:23;10.33;;;3.10;;
8252;SDS011;61313;48.396;10.008;2023-07-20T11:15:47;8.00;;;3.20;;
8252;SDS011;61313;48.396;10.008;2023-07-20T11:18:22;9.73;;;3.40;;
8252;SDS011;61313;48.396;10.008;2023-07-20T11:20:50;6.20;;;2.90;;
8252;SDS011;61313;48.396;10.008;2023-07-20T11:23:17;4.00;;;2.70;;
8252;SDS011;61313;48.396;10.008;2023-07-20T11:25:44;5.03;;;2.70;;
8252;SDS011;61313;48.396;10.008;2023-07-20T11:28:09;5.03;;;2.60;;
8252;SDS011;61313;48.396;10.008;2023-07-20T11:30:38;10.63;;;2.70;;
8252;SDS011;61313;48.396;10.008;2023-07-20T11:33:04;23.33;;;4.23;;
8252;SDS011;61313;48.396;10.008;2023-07-20T11:35:30;4.03;;;2.10;;
8252;SDS011;61313;48.396;10.008;2023-07-20T11:37:59;7.03;;;2.97;;
8252;SDS011;61313;48.396;10.008;2023-07-20T11:40:25;8.57;;;3.00;;
8252;SDS011;61313;48.396;10.008;2023-07-20T11:42:50;14.87;;;3.20;;
8252;SDS011;61313;48.396;10.008;2023-07-20T11:45:16;3.80;;;2.57;;
8252;SDS011;61313;48.396;10.008;2023-07-20T11:47:43;5.33;;;2.50;;
8252;SDS011;61313;48.396;10.008;2023-07-20T11:50:08;5.53;;;2.53;;
8252;SDS011;61313;48.396;10.008;2023-07-20T11:52:35;5.30;;;2.90;;
8252;SDS011;61313;48.396;10.008;2023-07-20T11:55:01;6.70;;;2.40;;
8252;SDS011;61313;48.396;10.008;2023-07-20T11:57:28;7.33;;;3.47;;
8252;SDS011;61313;48.396;10.008;2023-07-20T12:02:22;9.70;;;4.00;;
8252;SDS011;61313;48.396;10.008;2023-07-20T12:04:49;8.77;;;2.70;;
8252;SDS011;61313;48.396;10.008;2023-07-20T12:07:15;12.40;;;2.83;;
8252;SDS011;61313;48.396;10.008;2023-07-20T12:09:41;11.70;;;3.03;;
8252;SDS011;61313;48.396;10.008;2023-07-20T12:12:10;14.63;;;4.67;;
8252;SDS011;61313;48.396;10.008;2023-07-20T12:14:38;10.43;;;2.93;;
8252;SDS011;61313;48.396;10.008;2023-07-20T12:17:03;9.13;;;3.13;;
8252;SDS011;61313;48.396;10.008;2023-07-20T12:19:29;7.93;;;3.00;;
8252;SDS011;61313;48.396;10.008;2023-07-20T12:21:57;5.00;;;2.43;;
8252;SDS011;61313;48.396;10.008;2023-07-20T12:24:24;4.80;;;2.57;;
8252;SDS011;61313;48.396;10.008;2023-07-20T12:26:55;8.23;;;3.00;;
8252;SDS011;61313;48.396;10.008;2023-07-20T12:29:22;7.50;;;2.57;;
8252;SDS011;61313;48.396;10.008;2023-07-20T12:31:47;8.57;;;2.80;;
8252;SDS011;61313;48.396;10.008;2023-07-20T12:34:13;7.90;;;3.50;;
8252;SDS011;61313;48.396;10.008;2023-07-20T12:36:38;8.00;;;2.40;;
8252;SDS011;61313;48.396;10.008;2023-07-20T12:39:04;6.53;;;3.00;;
8252;SDS011;61313;48.396;10.008;2023-07-20T12:41:30;17.07;;;3.83;;
8252;SDS011;61313;48.396;10.008;2023-07-20T12:43:55;2.90;;;2.23;;
8252;SDS011;61313;48.396;10.008;2023-07-20T12:46:22;12.93;;;3.40;;
8252;SDS011;61313;48.396;10.008;2023-07-20T12:48:48;11.53;;;3.40;;
8252;SDS011;61313;48.396;10.008;2023-07-20T12:51:14;7.30;;;2.50;;
8252;SDS011;61313;48.396;10.008;2023-07-20T12:53:39;4.50;;;2.97;;
8252;SDS011;61313;48.396;10.008;2023-07-20T12:56:05;6.33;;;3.13;;
8252;SDS011;61313;48.396;10.008;2023-07-20T12:58:30;7.37;;;2.90;;
8252;SDS011;61313;48.396;10.008;2023-07-20T13:00:56;8.50;;;2.67;;
8252;SDS011;61313;48.396;10.008;2023-07-20T13:03:21;4.83;;;2.77;;
8252;SDS011;61313;48.396;10.008;2023-07-20T13:05:47;8.77;;;2.80;;
8252;SDS011;61313;48.396;10.008;2023-07-20T13:08:12;8.13;;;3.40;;
8252;SDS011;61313;48.396;10.008;2023-07-20T13:10:38;4.50;;;2.50;;
8252;SDS011;61313;48.396;10.008;2023-07-20T13:13:04;4.57;;;2.37;;
8252;SDS011;61313;48.396;10.008;2023-07-20T13:15:30;10.30;;;3.93;;
8252;SDS011;61313;48.396;10.008;2023-07-20T13:17:57;9.33;;;2.70;;
8252;SDS011;61313;48.396;10.008;2023-07-20T13:20:23;10.90;;;2.93;;
8252;SDS011;61313;48.396;10.008;2023-07-20T13:22:50;5.20;;;2.77;;
8252;SDS011;61313;48.396;10.008;2023-07-20T13:25:15;6.30;;;3.00;;
8252;SDS011;61313;48.396;10.008;2023-07-20T13:27:41;6.17;;;2.50;;
8252;SDS011;61313;48.396;10.008;2023-07-20T13:30:06;6.67;;;2.67;;
8252;SDS011;61313;48.396;10.008;2023-07-20T13:32:35;5.83;;;2.70;;
8252;SDS011;61313;48.396;10.008;2023-07-20T13:35:01;4.77;;;4.00;;
8252;SDS011;61313;48.396;10.008;2023-07-20T13:37:27;5.53;;;2.80;;
8252;SDS011;61313;48.396;10.008;2023-07-20T13:39:53;4.70;;;2.30;;
8252;SDS011;61313;48.396;10.008;2023-07-20T13:42:19;6.30;;;2.73;;
8252;SDS011;61313;48.396;10.008;2023-07-20T13:44:45;3.50;;;2.70;;
8252;SDS011;61313;48.396;10.008;2023-07-20T13:47:11;4.27;;;2.47;;
8252;SDS011;61313;48.396;10.008;2023-07-20T13:49:37;20.70;;;3.83;;
8252;SDS011;61313;48.396;10.008;2023-07-20T13:52:02;15.00;;;3.47;;
8252;SDS011;61313;48.396;10.008;2023-07-20T13:54:27;15.83;;;5.23;;
8252;SDS011;61313;48.396;10.008;2023-07-20T13:56:53;11.70;;;2.87;;
8252;SDS011;61313;48.396;10.008;2023-07-20T13:59:18;7.00;;;3.07;;
8252;SDS011;61313;48.396;10.008;2023-07-20T14:01:44;3.30;;;2.47;;
8252;SDS011;61313;48.396;10.008;2023-07-20T14:04:10;3.97;;;2.40;;
8252;SDS011;61313;48.396;10.008;2023-07-20T14:06:35;3.37;;;2.57;;
8252;SDS011;61313;48.396;10.008;2023-07-20T14:09:01;8.03;;;2.63;;
8252;SDS011;61313;48.396;10.008;2023-07-20T14:11:28;7.63;;;2.80;;
8252;SDS011;61313;48.396;10.008;2023-07-20T14:13:53;5.00;;;2.17;;
8252;SDS011;61313;48.396;10.008;2023-07-20T14:16:19;5.53;;;2.73;;
8252;SDS011;61313;48.396;10.008;2023-07-20T14:18:45;5.20;;;3.00;;
8252;SDS011;61313;48.396;10.008;2023-07-20T14:21:14;4.13;;;2.20;;
8252;SDS011;61313;48.396;10.008;2023-07-20T14:23:46;6.60;;;2.43;;
8252;SDS011;61313;48.396;10.008;2023-07-20T14:26:13;6.07;;;2.70;;
8252;SDS011;61313;48.396;10.008;2023-07-20T14:28:38;8.60;;;2.80;;
8252;SDS011;61313;48.396;10.008;2023-07-20T14:31:04;3.70;;;2.70;;
8252;SDS011;61313;48.396;10.008;2023-07-20T14:33:30;7.70;;;2.43;;
8252;SDS011;61313;48.396;10.008;2023-07-20T14:35:55;4.40;;;2.70;;
8252;SDS011;61313;48.396;10.008;2023-07-20T14:38:21;5.30;;;2.37;;
8252;SDS011;61313;48.396;10.008;2023-07-20T14:40:46;9.27;;;2.80;;
8252;SDS011;61313;48.396;10.008;2023-07-20T14:43:14;4.83;;;1.90;;
8252;SDS011;61313;48.396;10.008;2023-07-20T14:45:43;8.10;;;2.23;;
8252;SDS011;61313;48.396;10.008;2023-07-20T14:48:08;5.57;;;2.27;;
8252;SDS011;61313;48.396;10.008;2023-07-20T14:50:34;11.77;;;3.00;;
8252;SDS011;61313;48.396;10.008;2023-07-20T14:52:59;5.27;;;3.10;;
8252;SDS011;61313;48.396;10.008;2023-07-20T14:55:25;5.60;;;2.90;;
8252;SDS011;61313;48.396;10.008;2023-07-20T14:57:51;9.00;;;3.00;;
8252;SDS011;61313;48.396;10.008;2023-07-20T15:00:17;5.23;;;2.67;;